Time;durP1;ratioP1;P1;durP2;ratioP2;P2;SDS_P1;SDS_P2;PMS_P1;PMS_P2;Temp;Humidity;BMP_temperature;BMP_pressure;BME280_temperature;BME280_humidity;BME280_pressure;Samples;Min_cycle;Max_cycle;Signal;HPM_P1;HPM_P2
2022/08/25 00:01:31;;;;;;;8.43;4.30;;;25.20;27.60;;;;;;6218014;23;20386;-82
2022/08/25 00:03:58;;;;;;;5.03;4.27;;;25.10;27.50;;;;;;6217553;23;20478;-82
2022/08/25 00:06:24;;;;;;;7.40;4.10;;;25.10;27.90;;;;;;6216141;23;20402;-82
2022/08/25 00:08:50;;;;;;;6.47;4.30;;;25.10;27.70;;;;;;6191469;23;20425;-82
2022/08/25 00:11:22;;;;;;;7.40;3.77;;;25.10;27.90;;;;;;6191520;23;20425;-82
2022/08/25 00:13:53;;;;;;;8.83;4.00;;;25.00;27.60;;;;;;6218277;23;20569;-82
2022/08/25 00:16:20;;;;;;;11.43;4.50;;;25.00;27.70;;;;;;6189592;23;20386;-82
2022/08/25 00:18:49;;;;;;;8.57;4.27;;;24.90;27.70;;;;;;6191773;23;20539;-82
2022/08/25 00:21:15;;;;;;;6.77;4.13;;;24.90;28.40;;;;;;6192107;23;20386;-83
2022/08/25 00:23:42;;;;;;;8.47;4.23;;;24.90;28.80;;;;;;6191690;23;20426;-81
2022/08/25 00:26:08;;;;;;;5.83;4.20;;;24.80;28.90;;;;;;6220165;23;20461;-82
2022/08/25 00:28:35;;;;;;;7.57;4.70;;;24.80;29.60;;;;;;6219768;23;20504;-82
2022/08/25 00:31:01;;;;;;;9.90;4.47;;;24.70;29.90;;;;;;6194039;23;20389;-82
2022/08/25 00:33:29;;;;;;;6.97;5.07;;;24.70;29.90;;;;;;6220068;23;20444;-82
2022/08/25 00:35:55;;;;;;;7.53;4.30;;;24.60;30.00;;;;;;6193270;23;20476;-82
2022/08/25 00:38:21;;;;;;;8.90;4.17;;;24.50;30.90;;;;;;6191998;23;20448;-82
2022/08/25 00:41:04;;;;;;;7.53;4.53;;;24.40;30.60;;;;;;6194650;23;20392;-82
2022/08/25 00:43:50;;;;;;;6.87;4.37;;;24.40;30.20;;;;;;6193066;23;20640;-82
2022/08/25 00:46:29;;;;;;;6.33;4.50;;;24.30;31.00;;;;;;6191258;23;20395;-81
2022/08/25 00:49:00;;;;;;;7.87;4.60;;;24.20;31.50;;;;;;6192615;23;20428;-82
2022/08/25 00:51:41;;;;;;;4.03;3.63;;;24.20;32.30;;;;;;6193226;23;20790;-82
2022/08/25 00:54:13;;;;;;;6.93;4.33;;;24.20;32.60;;;;;;6193529;23;20501;-84
2022/08/25 00:56:39;;;;;;;8.73;4.53;;;24.10;32.90;;;;;;6218492;23;20387;-84
2022/08/25 00:59:05;;;;;;;5.17;4.10;;;24.10;33.30;;;;;;6192207;23;20445;-84
2022/08/25 01:01:31;;;;;;;5.60;4.20;;;24.00;34.60;;;;;;6217060;23;20387;-82
2022/08/25 01:03:56;;;;;;;6.53;4.27;;;24.00;35.60;;;;;;6193326;23;20181;-82
2022/08/25 01:06:22;;;;;;;9.30;4.80;;;24.00;36.10;;;;;;6217919;23;20171;-82
2022/08/25 01:08:49;;;;;;;6.83;4.00;;;24.00;36.50;;;;;;6193303;23;20188;-82
2022/08/25 01:11:15;;;;;;;4.50;4.10;;;23.90;36.80;;;;;;6193660;23;20387;-82
2022/08/25 01:13:45;;;;;;;7.17;4.80;;;23.90;37.50;;;;;;6192656;23;20457;-82
2022/08/25 01:16:13;;;;;;;5.03;4.40;;;23.90;37.90;;;;;;6191253;23;20458;-82
2022/08/25 01:18:52;;;;;;;7.07;4.50;;;23.80;37.90;;;;;;6219422;23;20387;-82
2022/08/25 01:21:21;;;;;;;7.20;4.20;;;23.80;38.00;;;;;;6192413;23;20402;-82
2022/08/25 01:23:48;;;;;;;7.77;4.73;;;23.80;38.80;;;;;;6192587;23;20414;-82
2022/08/25 01:26:20;;;;;;;7.63;4.60;;;23.80;39.00;;;;;;6219299;23;20471;-82
2022/08/25 01:31:35;;;;;;;6.37;3.90;;;23.80;39.50;;;;;;6218885;23;20362;-82
2022/08/25 01:34:04;;;;;;;4.93;3.80;;;23.70;40.60;;;;;;6193457;23;20433;-81
2022/08/25 01:36:30;;;;;;;6.47;3.70;;;23.70;41.50;;;;;;6217472;23;20708;-82
2022/08/25 01:38:56;;;;;;;5.40;3.40;;;23.70;41.30;;;;;;6192910;23;20509;-82
2022/08/25 01:41:40;;;;;;;4.40;3.30;;;23.60;40.80;;;;;;6192879;23;20873;-82
2022/08/25 01:44:06;;;;;;;4.57;3.20;;;23.60;40.70;;;;;;6219748;23;20410;-82
2022/08/25 01:46:32;;;;;;;5.97;3.63;;;23.50;40.10;;;;;;6191461;23;20395;-82
2022/08/25 01:49:00;;;;;;;6.00;3.40;;;23.50;40.00;;;;;;6219467;23;21236;-82
2022/08/25 01:51:28;;;;;;;4.93;3.23;;;23.50;40.30;;;;;;6192043;23;20439;-82
2022/08/25 01:53:54;;;;;;;7.70;3.87;;;23.40;40.90;;;;;;6192879;23;20504;-84
2022/08/25 01:56:20;;;;;;;6.67;3.17;;;23.50;40.30;;;;;;6192120;23;20830;-84
2022/08/25 01:58:48;;;;;;;4.60;4.10;;;23.40;40.00;;;;;;6192525;23;20631;-82
2022/08/25 02:01:22;;;;;;;5.63;3.80;;;23.40;40.00;;;;;;6192804;23;20191;-84
2022/08/25 02:03:51;;;;;;;6.83;4.90;;;23.40;41.70;;;;;;6193508;23;20434;-82
2022/08/25 02:06:27;;;;;;;3.50;3.20;;;23.50;42.00;;;;;;6217496;23;20412;-82
2022/08/25 02:08:56;;;;;;;6.80;3.80;;;23.50;42.10;;;;;;6221354;23;20556;-82
2022/08/25 02:11:22;;;;;;;4.93;3.67;;;23.50;42.30;;;;;;6193906;23;20395;-82
2022/08/25 02:13:48;;;;;;;6.03;3.90;;;23.50;42.90;;;;;;6192669;23;20418;-82
2022/08/25 02:16:19;;;;;;;4.40;4.00;;;23.50;43.30;;;;;;6191531;23;20470;-82
2022/08/25 02:18:46;;;;;;;4.80;3.60;;;23.50;42.80;;;;;;6218631;23;20136;-82
2022/08/25 02:21:12;;;;;;;8.13;4.00;;;23.40;42.10;;;;;;6192619;23;20391;-82
2022/08/25 02:23:38;;;;;;;4.90;3.97;;;23.40;41.30;;;;;;6191831;23;20415;-82
2022/08/25 02:26:04;;;;;;;4.57;3.20;;;23.40;41.60;;;;;;6218468;23;20414;-82
2022/08/25 02:28:29;;;;;;;6.77;4.00;;;23.40;42.10;;;;;;6191450;23;20190;-82
2022/08/25 02:30:55;;;;;;;4.83;4.07;;;23.40;42.70;;;;;;6192255;23;20157;-82
2022/08/25 02:33:21;;;;;;;6.20;4.50;;;23.40;43.00;;;;;;6217610;23;20183;-82
2022/08/25 02:35:47;;;;;;;7.57;3.60;;;23.30;41.50;;;;;;6192410;23;20798;-82
2022/08/25 02:38:12;;;;;;;7.10;3.97;;;23.40;42.10;;;;;;6191762;23;20189;-82
2022/08/25 02:40:38;;;;;;;3.50;3.17;;;23.30;41.90;;;;;;6191478;23;20668;-82
2022/08/25 02:43:04;;;;;;;6.60;3.70;;;23.30;42.20;;;;;;6218601;23;20263;-82
2022/08/25 02:45:30;;;;;;;6.10;3.60;;;23.30;43.10;;;;;;6192514;23;20238;-82
2022/08/25 02:47:56;;;;;;;6.30;4.03;;;23.30;43.00;;;;;;6191123;23;20958;-82
2022/08/25 02:50:22;;;;;;;6.30;3.43;;;23.20;42.80;;;;;;6191005;23;20212;-81
2022/08/25 02:52:49;;;;;;;5.57;3.90;;;23.20;43.00;;;;;;6190896;23;20180;-82
2022/08/25 02:55:16;;;;;;;8.93;3.80;;;23.10;43.10;;;;;;6217755;23;20442;-82
2022/08/25 02:57:42;;;;;;;8.00;4.07;;;23.10;43.00;;;;;;6190207;23;20481;-82
2022/08/25 03:00:10;;;;;;;5.07;3.90;;;23.00;42.60;;;;;;6191856;23;20735;-81
2022/08/25 03:02:36;;;;;;;5.60;4.07;;;23.10;43.20;;;;;;6190598;23;20243;-82
2022/08/25 03:05:04;;;;;;;9.27;4.60;;;23.00;43.00;;;;;;6191042;23;20403;-82
2022/08/25 03:07:29;;;;;;;7.80;5.50;;;23.00;43.60;;;;;;6189643;23;20161;-82
2022/08/25 03:09:55;;;;;;;7.60;5.07;;;22.90;44.30;;;;;;6191096;23;20391;-82
2022/08/25 03:12:21;;;;;;;4.53;3.53;;;22.80;44.40;;;;;;6191825;23;20163;-82
2022/08/25 03:14:47;;;;;;;6.90;4.60;;;22.80;44.30;;;;;;6191003;23;20170;-82
2022/08/25 03:17:13;;;;;;;6.87;3.97;;;22.80;45.50;;;;;;6217519;23;20532;-81
2022/08/25 03:19:38;;;;;;;8.30;4.57;;;22.70;45.70;;;;;;6192303;23;20197;-82
2022/08/25 03:22:04;;;;;;;4.93;4.37;;;22.60;58.80;;;;;;6218449;23;20377;-82
2022/08/25 03:24:29;;;;;;;6.70;4.60;;;22.60;47.10;;;;;;6217696;23;20166;-82
2022/08/25 03:26:55;;;;;;;5.73;4.33;;;22.50;47.50;;;;;;6191176;23;20215;-82
2022/08/25 03:29:23;;;;;;;5.50;4.10;;;22.50;47.90;;;;;;6218414;23;20188;-82
2022/08/25 03:31:50;;;;;;;6.63;4.40;;;22.50;48.80;;;;;;6217080;23;20178;-82
2022/08/25 03:34:17;;;;;;;5.20;3.97;;;22.50;48.60;;;;;;6191795;23;20432;-82
2022/08/25 03:36:45;;;;;;;6.83;4.73;;;22.50;49.40;;;;;;6190136;23;20442;-82
2022/08/25 03:39:12;;;;;;;8.50;4.20;;;22.50;50.00;;;;;;6192081;23;20385;-82
2022/08/25 03:41:38;;;;;;;9.70;4.87;;;22.50;49.50;;;;;;6191418;23;20420;-81
2022/08/25 03:44:05;;;;;;;7.27;4.73;;;22.50;49.90;;;;;;6217277;23;20397;-82
2022/08/25 03:46:34;;;;;;;7.00;4.50;;;22.40;50.20;;;;;;6190380;23;20385;-82
2022/08/25 03:49:01;;;;;;;6.80;3.93;;;22.40;51.00;;;;;;6190725;23;20517;-82
2022/08/25 03:51:30;;;;;;;4.67;4.17;;;22.40;51.30;;;;;;6217053;23;20428;-82
2022/08/25 03:53:57;;;;;;;7.83;4.70;;;22.40;51.60;;;;;;6217138;23;20397;-82
2022/08/25 03:56:24;;;;;;;7.40;4.50;;;22.40;52.30;;;;;;6190579;23;20393;-81
2022/08/25 03:58:50;;;;;;;6.17;4.27;;;22.40;52.70;;;;;;6190875;23;20393;-82
2022/08/25 04:01:16;;;;;;;7.70;4.47;;;22.40;53.20;;;;;;6193088;23;20867;-82
2022/08/25 04:03:41;;;;;;;9.53;4.00;;;22.40;53.80;;;;;;6192227;23;20410;-82
2022/08/25 04:06:08;;;;;;;7.93;4.43;;;22.30;54.80;;;;;;6219691;23;20378;-82
2022/08/25 04:08:34;;;;;;;6.50;4.50;;;22.30;54.80;;;;;;6192435;23;20191;-82
2022/08/25 04:11:06;;;;;;;5.57;4.13;;;22.30;55.30;;;;;;6220793;23;20378;-82
2022/08/25 04:13:31;;;;;;;7.13;4.63;;;22.30;55.20;;;;;;6218880;23;20432;-81
2022/08/25 04:15:57;;;;;;;6.50;4.50;;;22.30;56.40;;;;;;6193477;23;20807;-82
2022/08/25 04:18:22;;;;;;;6.33;4.10;;;22.20;56.40;;;;;;6191628;23;20215;-82
2022/08/25 04:20:48;;;;;;;13.40;4.83;;;22.20;57.40;;;;;;6193465;23;20253;-82
2022/08/25 04:23:14;;;;;;;6.60;4.23;;;22.20;57.60;;;;;;6192841;23;20761;-82
2022/08/25 04:25:43;;;;;;;9.30;4.47;;;22.20;58.80;;;;;;6219818;23;20158;-82
2022/08/25 04:28:09;;;;;;;7.27;4.70;;;22.10;58.70;;;;;;6192525;23;20254;-82
2022/08/25 04:30:35;;;;;;;7.47;4.50;;;22.10;59.70;;;;;;6193097;23;20509;-82
2022/08/25 04:33:01;;;;;;;7.03;5.00;;;22.10;59.30;;;;;;6218557;23;20942;-82
2022/08/25 04:35:26;;;;;;;6.80;4.47;;;22.10;61.20;;;;;;6193159;23;20379;-82
2022/08/25 04:37:52;;;;;;;15.27;4.60;;;22.10;61.70;;;;;;6192605;23;20158;-82
2022/08/25 04:40:17;;;;;;;9.50;4.97;;;22.10;61.80;;;;;;6219597;23;20180;-82
2022/08/25 04:42:43;;;;;;;5.57;4.17;;;22.10;62.30;;;;;;6192168;23;20277;-82
2022/08/25 04:45:09;;;;;;;10.97;4.40;;;22.10;63.30;;;;;;6193748;23;20165;-82
2022/08/25 04:47:39;;;;;;;8.90;4.20;;;22.00;62.70;;;;;;6191364;23;20508;-82
2022/08/25 04:50:06;;;;;;;10.93;4.60;;;22.00;63.40;;;;;;6192351;23;20158;-82
2022/08/25 04:52:32;;;;;;;14.67;5.43;;;22.00;63.90;;;;;;6192233;23;20391;-82
2022/08/25 04:54:58;;;;;;;9.00;4.90;;;22.10;64.10;;;;;;6219600;23;20884;-82
2022/08/25 04:57:25;;;;;;;15.10;4.70;;;22.10;64.60;;;;;;6191651;23;20388;-82
2022/08/25 04:59:50;;;;;;;12.73;5.60;;;22.00;66.30;;;;;;6192439;23;20870;-82
2022/08/25 05:02:16;;;;;;;13.30;4.80;;;21.90;66.00;;;;;;6220556;23;20423;-82
2022/08/25 05:04:42;;;;;;;12.30;5.40;;;21.90;66.40;;;;;;6217679;23;20172;-82
2022/08/25 05:07:07;;;;;;;18.57;4.93;;;21.80;67.20;;;;;;6192241;23;20193;-82
2022/08/25 05:09:33;;;;;;;14.03;5.00;;;21.80;67.90;;;;;;6192123;23;20208;-82
2022/08/25 05:12:01;;;;;;;24.07;5.30;;;21.80;69.00;;;;;;6192764;23;20253;-82
2022/08/25 05:14:26;;;;;;;11.37;4.80;;;21.80;69.90;;;;;;6192481;23;20180;-82
2022/08/25 05:16:53;;;;;;;10.03;4.50;;;21.90;70.70;;;;;;6220089;23;20864;-82
2022/08/25 05:19:18;;;;;;;16.83;5.30;;;21.90;71.20;;;;;;6191905;23;20167;-82
2022/08/25 05:21:44;;;;;;;12.83;5.20;;;21.90;72.50;;;;;;6220969;23;20410;-82
2022/08/25 05:24:10;;;;;;;10.53;4.53;;;22.00;71.20;;;;;;6192778;23;20207;-82
2022/08/25 05:26:37;;;;;;;16.80;4.80;;;22.10;72.20;;;;;;6197372;23;20161;-87
2022/08/25 05:29:04;;;;;;;9.30;4.20;;;22.20;72.40;;;;;;6201206;23;20482;-85
2022/08/25 05:31:31;;;;;;;8.50;4.20;;;22.80;76.50;;;;;;6201883;23;20383;-85
2022/08/25 05:33:57;;;;;;;7.20;3.90;;;25.60;80.70;;;;;;6228571;23;20417;-84
2022/08/25 05:36:25;;;;;;;5.87;3.70;;;27.80;78.80;;;;;;6199529;23;20388;-84
2022/08/25 05:38:51;;;;;;;4.90;3.50;;;29.50;77.70;;;;;;6226304;23;20852;-85
2022/08/25 05:41:20;;;;;;;9.67;5.53;;;32.00;80.30;;;;;;6226179;23;20431;-85
2022/08/25 05:43:48;;;;;;;7.10;3.60;;;34.30;77.10;;;;;;6199033;23;20416;-85
2022/08/25 05:46:18;;;;;;;7.90;3.70;;;36.70;73.00;;;;;;6221321;23;20381;-84
2022/08/25 05:48:44;;;;;;;7.60;3.50;;;38.80;62.70;;;;;;6218683;23;20413;-84
2022/08/25 05:51:11;;;;;;;5.43;3.53;;;40.70;55.40;;;;;;6217090;23;20843;-85
2022/08/25 05:53:40;;;;;;;4.70;3.17;;;42.60;48.60;;;;;;6217254;23;20807;-84
2022/08/25 05:56:06;;;;;;;5.80;2.90;;;44.10;41.70;;;;;;6216910;23;20437;-85
2022/08/25 05:58:35;;;;;;;4.50;3.00;;;45.40;34.70;;;;;;6217143;23;20459;-86
2022/08/25 06:03:47;;;;;;;3.83;2.80;;;47.00;23.00;;;;;;6187485;23;20952;-86
2022/08/25 06:06:14;;;;;;;9.20;2.87;;;48.20;19.20;;;;;;6218877;23;20383;-86
2022/08/25 06:08:40;;;;;;;5.43;2.63;;;48.80;15.00;;;;;;6219551;23;20440;-86
2022/08/25 06:11:06;;;;;;;5.07;2.67;;;49.60;11.30;;;;;;6219827;23;20691;-86
2022/08/25 06:13:32;;;;;;;4.93;2.33;;;50.30;16.60;;;;;;6192903;23;20173;-86
2022/08/25 06:15:58;;;;;;;4.63;2.80;;;51.20;5.10;;;;;;6219556;23;20145;-86
2022/08/25 06:18:24;;;;;;;4.17;2.73;;;51.90;1.60;;;;;;6192179;23;20206;-86
2022/08/25 06:20:49;;;;;;;3.63;2.80;;;52.20;1.00;;;;;;6219936;23;20210;-86
2022/08/25 06:23:17;;;;;;;4.78;3.05;;;52.80;1.00;;;;;;6192220;23;20184;-86
2022/08/25 06:25:52;;;;;;;3.83;2.70;;;52.90;1.00;;;;;;6191772;23;20193;-86
2022/08/25 06:28:18;;;;;;;5.70;2.65;;;53.00;1.00;;;;;;6218098;23;20261;-86
2022/08/25 06:30:44;;;;;;;5.47;2.97;;;53.40;1.00;;;;;;6218325;23;20195;-86
2022/08/25 06:33:10;;;;;;;8.73;2.70;;;53.90;1.00;;;;;;6192428;23;20173;-86
2022/08/25 06:35:39;;;;;;;7.47;2.83;;;53.90;1.00;;;;;;6191924;23;20211;-87
2022/08/25 06:38:05;;;;;;;5.88;2.63;;;53.90;1.00;;;;;;6193747;23;20188;-84
2022/08/25 06:40:30;;;;;;;4.05;2.80;;;53.90;1.00;;;;;;6225201;23;20149;-84
2022/08/25 06:42:56;;;;;;;11.27;2.58;;;54.00;1.00;;;;;;6199308;23;20624;-84
2022/08/25 06:45:21;;;;;;;6.82;3.13;;;54.20;1.00;;;;;;6225010;23;20149;-83
2022/08/25 06:47:47;;;;;;;3.60;2.80;;;54.50;1.00;;;;;;6197070;23;20185;-84
2022/08/25 06:50:12;;;;;;;5.50;2.80;;;54.40;1.00;;;;;;6224931;23;20160;-84
2022/08/25 06:52:38;;;;;;;11.23;2.67;;;54.50;1.00;;;;;;6198637;23;20153;-84
2022/08/25 06:55:05;;;;;;;4.32;2.78;;;54.60;1.00;;;;;;6224262;23;20608;-84
2022/08/25 06:57:34;;;;;;;5.28;2.33;;;54.90;1.00;;;;;;6198030;23;20661;-84
2022/08/25 07:00:00;;;;;;;8.52;2.40;;;55.50;1.00;;;;;;6198216;23;20163;-84
2022/08/25 07:02:26;;;;;;;3.15;2.65;;;55.80;1.00;;;;;;6197802;23;20414;-84
2022/08/25 07:04:52;;;;;;;6.30;2.53;;;55.80;1.00;;;;;;6225696;23;20156;-84
2022/08/25 07:07:18;;;;;;;5.10;2.80;;;55.70;1.00;;;;;;6199576;23;20157;-84
2022/08/25 07:09:43;;;;;;;5.72;2.95;;;55.50;1.00;;;;;;6225156;23;20191;-84
2022/08/25 07:12:09;;;;;;;3.55;2.35;;;55.50;1.00;;;;;;6199038;23;20160;-84
2022/08/25 07:14:35;;;;;;;5.30;2.95;;;55.30;1.00;;;;;;6225075;23;20165;-84
2022/08/25 07:17:01;;;;;;;3.83;2.53;;;55.30;1.00;;;;;;6223366;23;20149;-84
2022/08/25 07:19:27;;;;;;;7.47;2.42;;;55.40;1.00;;;;;;6198790;23;20211;-82
2022/08/25 07:21:53;;;;;;;10.40;2.80;;;55.50;1.00;;;;;;6224781;23;20152;-83
2022/08/25 07:24:18;;;;;;;6.85;2.70;;;55.50;1.00;;;;;;6198831;23;20176;-83
2022/08/25 07:26:45;;;;;;;7.60;2.95;;;54.90;1.00;;;;;;6198808;23;20235;-83
2022/08/25 07:29:20;;;;;;;4.85;2.45;;;54.80;1.00;;;;;;6199976;23;20658;-83
2022/08/25 07:31:46;;;;;;;8.80;2.97;;;55.10;1.00;;;;;;6198542;23;20208;-83
2022/08/25 07:36:56;;;;;;;4.83;2.60;;;54.70;1.00;;;;;;6227253;23;20207;-83
2022/08/25 07:39:22;;;;;;;11.20;3.10;;;54.40;1.00;;;;;;6228150;23;20185;-83
2022/08/25 07:41:48;;;;;;;6.00;2.70;;;54.60;1.00;;;;;;6202020;23;20153;-83
2022/08/25 07:44:14;;;;;;;8.30;2.67;;;55.50;1.00;;;;;;6200960;23;20523;-83
2022/08/25 07:46:40;;;;;;;5.78;2.40;;;55.60;1.00;;;;;;6225880;23;20172;-84
2022/08/25 07:49:06;;;;;;;5.95;2.72;;;56.00;1.00;;;;;;6198845;23;20219;-82
2022/08/25 07:51:32;;;;;;;5.38;2.10;;;56.10;1.00;;;;;;6197498;23;20208;-82
2022/08/25 07:53:58;;;;;;;6.43;2.53;;;55.80;1.00;;;;;;6199752;23;20181;-83
2022/08/25 07:56:23;;;;;;;6.60;2.83;;;55.10;1.00;;;;;;6197968;23;20373;-83
2022/08/25 07:58:50;;;;;;;3.67;2.77;;;54.70;1.00;;;;;;6199642;23;20584;-83
2022/08/25 08:01:18;;;;;;;2.55;1.88;;;55.10;1.00;;;;;;6199516;23;20160;-84
2022/08/25 08:03:44;;;;;;;8.13;2.90;;;55.10;1.00;;;;;;6225197;23;20295;-84
2022/08/25 08:06:12;;;;;;;6.00;2.47;;;54.40;1.00;;;;;;6198545;23;20160;-84
2022/08/25 08:08:42;;;;;;;8.27;3.00;;;54.10;1.00;;;;;;6226323;23;20176;-83
2022/08/25 08:11:17;;;;;;;6.10;2.70;;;53.80;1.00;;;;;;6200094;23;20587;-83
2022/08/25 08:13:44;;;;;;;6.47;2.83;;;53.50;1.00;;;;;;6199849;23;20192;-83
2022/08/25 08:16:11;;;;;;;7.07;2.80;;;53.50;1.00;;;;;;6199164;23;20160;-84
2022/08/25 08:18:37;;;;;;;3.63;2.77;;;54.00;1.00;;;;;;6198860;23;20188;-83
2022/08/25 08:21:03;;;;;;;4.07;2.57;;;54.50;1.00;;;;;;6196605;23;20157;-83
2022/08/25 08:23:29;;;;;;;6.30;2.40;;;54.50;1.00;;;;;;6225134;23;20176;-83
2022/08/25 08:25:55;;;;;;;4.10;2.73;;;54.40;1.00;;;;;;6224034;23;20494;-83
2022/08/25 08:28:21;;;;;;;8.07;2.83;;;54.30;1.00;;;;;;6197077;23;20161;-83
2022/08/25 08:30:47;;;;;;;7.00;2.13;;;54.60;1.00;;;;;;6198380;23;20240;-83
2022/08/25 08:33:13;;;;;;;9.03;3.10;;;54.30;1.00;;;;;;6224577;23;20225;-83
2022/08/25 08:35:42;;;;;;;7.47;3.23;;;54.40;1.00;;;;;;6198756;23;20165;-83
2022/08/25 08:38:08;;;;;;;7.43;3.57;;;54.10;1.00;;;;;;6195762;23;20185;-83
2022/08/25 08:42:15;;;;;;;7.17;3.33;;;54.00;1.00;;;;;;6198272;23;20244;-83
2022/08/25 08:43:33;;;;;;;11.40;2.90;;;53.70;1.00;;;;;;6223933;23;20259;-83
2022/08/25 08:45:58;;;;;;;7.43;3.60;;;53.30;1.00;;;;;;6223236;23;20373;-84
2022/08/25 08:48:50;;;;;;;14.30;3.03;;;53.40;1.00;;;;;;6200327;23;20836;-84
2022/08/25 08:51:27;;;;;;;11.07;3.30;;;53.50;1.00;;;;;;6160773;23;20164;-84
2022/08/25 08:53:54;;;;;;;8.10;3.10;;;53.50;1.00;;;;;;6200034;23;20410;-83
2022/08/25 08:56:38;;;;;;;8.50;3.57;;;53.50;1.00;;;;;;6198265;23;20474;-84
2022/08/25 08:59:20;;;;;;;11.93;3.10;;;53.20;1.00;;;;;;6196138;23;20528;-84
2022/08/25 09:01:55;;;;;;;11.63;3.20;;;53.00;1.00;;;;;;6197516;23;20395;-84
2022/08/25 09:04:38;;;;;;;10.10;3.70;;;52.60;1.00;;;;;;6196161;23;20554;-84
2022/08/25 09:07:10;;;;;;;16.80;4.00;;;52.30;1.00;;;;;;6196981;23;21198;-83
2022/08/25 09:09:39;;;;;;;8.00;3.60;;;52.20;1.00;;;;;;6224475;23;20732;-83
2022/08/25 09:12:36;;;;;;;15.73;3.70;;;51.80;1.00;;;;;;6197534;23;20733;-84
2022/08/25 09:16:53;;;;;;;7.97;3.23;;;51.90;1.00;;;;;;6225137;23;20381;-84
2022/08/25 09:18:30;;;;;;;11.33;3.47;;;52.60;1.00;;;;;;6220732;23;20419;-84
2022/08/25 09:21:04;;;;;;;10.43;3.33;;;52.90;1.00;;;;;;6191008;23;20380;-85
2022/08/25 09:23:44;;;;;;;9.00;3.57;;;53.10;1.00;;;;;;6217063;23;20474;-84
2022/08/25 09:26:40;;;;;;;7.90;3.30;;;52.70;1.00;;;;;;6193936;23;20140;-84
2022/08/25 09:29:09;;;;;;;6.23;3.10;;;52.70;1.00;;;;;;6221032;23;20400;-84
2022/08/25 09:31:38;;;;;;;11.20;2.77;;;52.90;1.00;;;;;;6195272;23;20388;-84
2022/08/25 09:34:21;;;;;;;5.03;2.60;;;52.80;1.00;;;;;;6194074;23;20486;-84
2022/08/25 09:36:49;;;;;;;7.50;2.57;;;53.10;1.00;;;;;;6195591;23;20380;-83
2022/08/25 09:39:15;;;;;;;6.47;2.87;;;52.60;1.00;;;;;;6222289;23;20181;-84
2022/08/25 09:41:55;;;;;;;8.87;2.70;;;52.60;1.00;;;;;;6196393;23;20376;-84
2022/08/25 09:44:37;;;;;;;7.30;3.20;;;52.50;1.00;;;;;;6195773;23;20411;-82
2022/08/25 09:47:21;;;;;;;12.07;3.13;;;53.00;1.00;;;;;;6221185;23;20152;-83
2022/08/25 09:50:01;;;;;;;7.13;2.43;;;53.30;1.00;;;;;;6221762;23;20149;-85
2022/08/25 09:52:38;;;;;;;7.23;2.77;;;53.30;1.00;;;;;;6191032;23;20224;-84
2022/08/25 09:55:06;;;;;;;11.73;3.70;;;53.70;1.00;;;;;;6214349;23;20212;-84
2022/08/25 09:57:44;;;;;;;6.97;2.43;;;53.60;1.00;;;;;;6189774;23;20161;-85
2022/08/25 10:00:10;;;;;;;7.80;2.80;;;53.60;1.00;;;;;;6189251;23;20164;-83
2022/08/25 10:02:35;;;;;;;5.97;2.57;;;53.00;1.00;;;;;;6218832;23;20153;-84
2022/08/25 10:05:16;;;;;;;7.27;2.90;;;52.50;1.00;;;;;;6193894;23;20160;-84
2022/08/25 10:07:58;;;;;;;11.97;3.20;;;52.10;1.00;;;;;;6195469;23;20192;-84
2022/08/25 10:10:31;;;;;;;8.17;2.77;;;52.10;1.00;;;;;;6195277;23;20372;-83
2022/08/25 10:12:59;;;;;;;8.23;3.00;;;51.70;1.00;;;;;;6193794;23;20400;-83
2022/08/25 10:15:36;;;;;;;10.83;3.20;;;51.30;1.00;;;;;;6194626;23;20415;-83
2022/08/25 10:18:20;;;;;;;8.93;2.73;;;51.30;1.00;;;;;;6195242;23;20427;-86
2022/08/25 10:21:04;;;;;;;9.17;3.20;;;51.60;1.00;;;;;;6194964;23;20433;-84
2022/08/25 10:23:32;;;;;;;6.43;2.73;;;51.50;1.00;;;;;;6220901;23;20862;-83
2022/08/25 10:26:04;;;;;;;12.90;3.90;;;51.70;1.00;;;;;;6218496;23;20213;-82
2022/08/25 10:28:53;;;;;;;11.33;2.90;;;51.40;1.00;;;;;;6194332;23;20376;-83
2022/08/25 10:31:47;;;;;;;5.40;2.83;;;50.90;1.00;;;;;;6192709;23;20376;-85
2022/08/25 10:34:23;;;;;;;12.50;2.57;;;50.80;1.00;;;;;;6192172;23;20486;-83
2022/08/25 10:37:13;;;;;;;8.30;2.60;;;50.50;1.00;;;;;;6192959;23;20849;-86
2022/08/25 10:39:39;;;;;;;11.80;3.53;;;50.70;1.00;;;;;;6193339;23;20439;-85
2022/08/25 10:42:30;;;;;;;13.50;2.80;;;50.40;1.00;;;;;;6218848;23;20863;-83
2022/08/25 10:48:03;;;;;;;7.57;2.80;;;50.70;1.00;;;;;;6219305;23;20371;-83
2022/08/25 10:50:37;;;;;;;4.63;2.30;;;50.40;1.00;;;;;;6221770;23;20391;-83
2022/08/25 10:53:18;;;;;;;4.17;2.70;;;50.40;1.00;;;;;;6221077;23;20805;-83
2022/08/25 10:55:59;;;;;;;4.23;2.30;;;50.20;1.00;;;;;;6193473;23;20430;-84
2022/08/25 11:01:47;;;;;;;7.73;2.50;;;50.00;1.00;;;;;;6221640;23;20364;-83
2022/08/25 11:04:34;;;;;;;11.90;2.70;;;49.80;1.00;;;;;;6198593;23;20756;-85
2022/08/25 11:07:21;;;;;;;5.87;2.53;;;49.80;1.00;;;;;;6221036;23;20382;-86
2022/08/25 11:09:51;;;;;;;5.90;2.53;;;49.70;1.00;;;;;;6222996;23;20371;-84
2022/08/25 11:12:29;;;;;;;6.20;2.80;;;49.50;1.00;;;;;;6224523;23;20380;-84
2022/08/25 11:15:00;;;;;;;4.90;2.40;;;49.10;1.00;;;;;;6195417;23;20438;-83
2022/08/25 11:17:41;;;;;;;2.60;2.40;;;49.10;1.00;;;;;;6194083;23;20376;-84
2022/08/25 11:20:13;;;;;;;8.83;3.00;;;49.40;1.00;;;;;;6194004;23;20380;-84
2022/08/25 11:22:38;;;;;;;13.93;3.20;;;49.40;1.00;;;;;;6195365;23;20383;-84
2022/08/25 11:25:18;;;;;;;5.00;2.00;;;49.20;1.00;;;;;;6195335;23;20392;-85
2022/08/25 11:28:06;;;;;;;4.80;2.80;;;49.30;1.00;;;;;;6194405;23;20141;-84
2022/08/25 11:30:32;;;;;;;3.40;2.10;;;49.20;1.00;;;;;;6221464;23;20368;-84
2022/08/25 11:32:58;;;;;;;4.70;2.07;;;49.10;1.00;;;;;;6194651;23;20466;-84
2022/08/25 11:35:44;;;;;;;4.00;2.20;;;48.90;1.00;;;;;;6194322;23;20579;-83
2022/08/25 11:38:26;;;;;;;4.73;2.30;;;49.30;1.00;;;;;;6219240;23;20631;-85
2022/08/25 11:41:07;;;;;;;3.43;2.27;;;49.30;1.00;;;;;;6195004;23;20636;-84
2022/08/25 11:43:42;;;;;;;4.67;2.43;;;49.30;1.00;;;;;;6193744;23;20730;-84
2022/08/25 11:46:38;;;;;;;3.93;1.90;;;49.40;1.00;;;;;;6193982;23;20403;-85
2022/08/25 11:49:42;;;;;;;6.07;1.90;;;49.50;1.00;;;;;;6195297;23;20443;-84
2022/08/25 11:52:32;;;;;;;4.70;1.93;;;50.00;1.00;;;;;;6194824;23;20521;-84
2022/08/25 11:55:20;;;;;;;4.30;1.90;;;50.00;1.00;;;;;;6194066;23;20395;-85
2022/08/25 11:57:48;;;;;;;4.60;1.90;;;49.50;1.00;;;;;;6194071;23;20957;-85
2022/08/25 12:00:32;;;;;;;9.17;2.10;;;49.40;1.00;;;;;;6194027;23;20977;-84
2022/08/25 12:02:58;;;;;;;4.30;2.27;;;49.80;1.00;;;;;;6192592;23;20418;-86
2022/08/25 12:05:31;;;;;;;6.60;2.10;;;49.80;1.00;;;;;;6194183;23;20874;-84
2022/08/25 12:10:54;;;;;;;2.67;1.77;;;49.60;1.00;;;;;;6220554;23;20857;-84
2022/08/25 12:13:37;;;;;;;2.53;1.43;;;49.60;1.00;;;;;;6194665;23;20764;-84
2022/08/25 12:16:04;;;;;;;6.70;1.70;;;49.60;1.00;;;;;;6219705;23;20753;-85
2022/08/25 12:18:30;;;;;;;6.70;1.70;;;49.10;1.00;;;;;;6196113;23;20482;-84
2022/08/25 12:20:55;;;;;;;2.13;1.50;;;48.30;1.00;;;;;;6196668;23;20384;-87
2022/08/25 12:23:37;;;;;;;3.27;1.63;;;47.80;1.00;;;;;;6197346;23;20685;-84
2022/08/25 12:26:11;;;;;;;6.80;1.93;;;47.80;1.00;;;;;;6197146;23;20153;-83
2022/08/25 12:28:52;;;;;;;1.50;1.30;;;47.50;1.00;;;;;;6199109;23;20376;-84
2022/08/25 12:31:21;;;;;;;2.87;1.27;;;47.30;1.00;;;;;;6223887;23;20474;-83
2022/08/25 12:34:12;;;;;;;1.93;1.50;;;47.00;1.00;;;;;;6196679;23;20455;-83
2022/08/25 12:36:38;;;;;;;2.60;1.50;;;46.60;1.00;;;;;;6197680;23;20384;-83
2022/08/25 12:39:27;;;;;;;1.83;1.50;;;46.00;1.00;;;;;;6196717;23;20458;-83
2022/08/25 12:42:03;;;;;;;3.70;1.70;;;45.80;1.00;;;;;;6196390;23;20153;-83
2022/08/25 12:44:38;;;;;;;3.00;1.60;;;45.90;1.00;;;;;;6221275;23;20407;-83
2022/08/25 12:47:12;;;;;;;1.70;1.60;;;46.10;1.00;;;;;;6194530;23;20388;-83
2022/08/25 12:49:37;;;;;;;3.50;1.40;;;46.20;1.00;;;;;;6195822;23;20392;-83
2022/08/25 12:52:11;;;;;;;3.00;2.10;;;45.90;1.00;;;;;;6194130;23;20400;-84
2022/08/25 12:54:52;;;;;;;5.37;1.67;;;45.70;1.00;;;;;;6196164;23;20182;-82
2022/08/25 12:57:39;;;;;;;1.80;1.70;;;45.60;1.00;;;;;;6195124;23;20415;-83
2022/08/25 13:00:24;;;;;;;3.17;1.90;;;45.80;1.00;;;;;;6194781;23;20388;-83
2022/08/25 13:03:12;;;;;;;3.87;1.60;;;46.20;1.00;;;;;;6194266;23;20408;-84
2022/08/25 13:05:46;;;;;;;7.80;1.63;;;46.60;1.00;;;;;;6194286;23;20385;-84
2022/08/25 13:08:35;;;;;;;3.93;1.57;;;46.80;1.00;;;;;;6217933;23;20846;-84
2022/08/25 13:11:11;;;;;;;2.33;1.50;;;47.00;1.00;;;;;;6220874;23;20814;-84
2022/08/25 13:14:00;;;;;;;4.53;1.37;;;47.10;1.00;;;;;;6220822;23;20408;-83
2022/08/25 13:16:28;;;;;;;3.40;1.43;;;47.10;1.00;;;;;;6192468;23;20404;-83
2022/08/25 13:18:57;;;;;;;3.70;1.80;;;47.10;1.00;;;;;;6193450;23;20428;-84
2022/08/25 13:21:28;;;;;;;3.43;1.50;;;47.10;1.00;;;;;;6193217;23;20925;-84
2022/08/25 13:23:56;;;;;;;1.77;1.67;;;46.90;1.00;;;;;;6194967;23;20758;-84
2022/08/25 13:26:31;;;;;;;2.33;1.90;;;46.90;1.00;;;;;;6217730;23;20751;-84